createdAt,value
2023-03-29T00:00:35.989Z,5.57
2023-03-29T00:05:41.193Z,5.37
2023-03-29T00:10:42.908Z,5.44
2023-03-29T00:15:44.579Z,5.64
2023-03-29T00:20:46.277Z,5.38
2023-03-29T00:25:47.976Z,5.31
2023-03-29T00:30:54.872Z,5.68
2023-03-29T00:36:11.315Z,5.48
2023-03-29T00:41:12.976Z,5.33
2023-03-29T00:46:15.436Z,5.53
2023-03-29T00:51:19.860Z,5.64
2023-03-29T01:02:02.800Z,5.48
2023-03-29T01:07:30.918Z,5.84
2023-03-29T01:12:39.245Z,5.80
2023-03-29T01:24:28.179Z,5.86
2023-03-29T01:29:46.171Z,5.90
2023-03-29T01:35:00.183Z,5.88
2023-03-29T01:40:02.127Z,5.92
2023-03-29T01:45:20.268Z,5.93
2023-03-29T01:50:54.305Z,5.78
2023-03-29T01:56:49.232Z,5.98
2023-03-29T02:07:17.434Z,5.70
2023-03-29T02:12:19.744Z,5.88
2023-03-29T02:17:23.696Z,5.61
2023-03-29T02:22:40.211Z,5.98
2023-03-29T02:27:42.216Z,5.87
2023-03-29T02:32:55.967Z,5.98
2023-03-29T02:38:17.132Z,5.58
2023-03-29T02:43:20.777Z,5.79
2023-03-29T02:48:27.033Z,5.77
2023-03-29T02:53:43.320Z,5.97
2023-03-29T02:58:44.938Z,5.60
2023-03-29T03:03:47.985Z,5.52
2023-03-29T03:08:50.024Z,5.92
2023-03-29T03:13:52.591Z,5.63
2023-03-29T03:18:55.728Z,5.56
2023-03-29T03:24:22.156Z,6.08
2023-03-29T03:29:25.101Z,6.13
2023-03-29T03:34:27.741Z,6.11
2023-03-29T03:39:32.649Z,5.78
2023-03-29T03:44:34.351Z,5.99
2023-03-29T03:49:35.939Z,5.93
2023-03-29T03:54:38.126Z,5.88
2023-03-29T03:59:39.739Z,6.08
2023-03-29T04:04:47.728Z,6.23
2023-03-29T04:09:49.667Z,6.00
2023-03-29T04:15:03.855Z,6.01
2023-03-29T04:20:15.202Z,6.19
2023-03-29T04:25:17.406Z,6.21
2023-03-29T04:30:19.138Z,6.23
2023-03-29T04:35:20.780Z,6.31
2023-03-29T04:40:22.389Z,6.08
2023-03-29T04:45:24.027Z,6.09
2023-03-29T04:50:25.868Z,6.07
2023-03-29T04:55:55.631Z,6.41
2023-03-29T05:00:58.926Z,6.09
2023-03-29T05:06:07.105Z,6.15
2023-03-29T05:11:11.690Z,6.15
2023-03-29T05:16:13.369Z,6.14
2023-03-29T05:21:15.121Z,6.23
2023-03-29T05:26:16.741Z,6.29
2023-03-29T05:31:18.714Z,6.46
2023-03-29T05:36:21.459Z,6.26
2023-03-29T05:41:25.803Z,6.22
2023-03-29T05:46:27.468Z,6.35
2023-03-29T05:51:29.140Z,6.28
2023-03-29T05:56:42.066Z,6.52
2023-03-29T06:02:05.497Z,6.58
2023-03-29T06:07:07.237Z,6.26
2023-03-29T06:12:34.521Z,6.24
2023-03-29T06:17:40.818Z,6.67
2023-03-29T06:22:43.264Z,6.34
2023-03-29T06:27:46.776Z,6.71
2023-03-29T06:32:50.611Z,6.61
2023-03-29T06:38:13.894Z,6.59
2023-03-29T06:43:15.534Z,6.43
2023-03-29T06:48:17.360Z,6.48
2023-03-29T06:53:19.235Z,6.83
2023-03-29T06:58:20.904Z,6.67
2023-03-29T07:03:23.694Z,7.06
2023-03-29T07:13:56.409Z,7.04
2023-03-29T07:18:58.124Z,7.21
2023-03-29T07:23:59.672Z,7.36
2023-03-29T07:29:01.439Z,7.41
2023-03-29T07:34:17.828Z,7.47
2023-03-29T07:39:20.474Z,7.36
2023-03-29T07:44:31.329Z,7.65
2023-03-29T07:49:34.462Z,7.38
2023-03-29T07:54:36.020Z,7.35
2023-03-29T07:59:37.775Z,7.65
2023-03-29T08:04:49.003Z,7.75
2023-03-29T08:09:50.941Z,7.79
2023-03-29T08:14:52.524Z,7.92
2023-03-29T08:20:02.604Z,8.17
2023-03-29T08:25:04.836Z,8.10
2023-03-29T08:30:09.539Z,8.63
2023-03-29T08:35:11.328Z,8.69
2023-03-29T08:40:21.586Z,8.75
2023-03-29T08:45:35.575Z,8.92
2023-03-29T08:50:53.008Z,9.02
2023-03-29T08:55:59.291Z,9.22
2023-03-29T09:01:04.335Z,9.37
2023-03-29T09:06:20.151Z,9.53
2023-03-29T09:11:27.069Z,9.71
2023-03-29T09:17:05.581Z,10.07
2023-03-29T09:22:17.490Z,10.22
2023-03-29T09:27:37.963Z,10.17
2023-03-29T09:32:49.878Z,9.95
2023-03-29T09:38:17.610Z,9.84
2023-03-29T09:49:39.466Z,9.67
2023-03-29T10:00:22.412Z,9.88
2023-03-29T10:05:26.436Z,10.21
2023-03-29T10:10:33.540Z,10.13
2023-03-29T10:15:36.329Z,10.33
2023-03-29T10:20:40.078Z,10.22
2023-03-29T10:25:47.845Z,10.10
2023-03-29T10:30:57.683Z,10.18
2023-03-29T10:36:06.994Z,10.08
2023-03-29T10:41:13.296Z,10.36
2023-03-29T10:46:41.552Z,10.50
2023-03-29T10:51:48.113Z,11.09
2023-03-29T10:56:55.718Z,11.13
2023-03-29T11:02:14.250Z,11.69
2023-03-29T11:07:26.368Z,11.74
2023-03-29T11:12:49.432Z,11.58
2023-03-29T11:18:30.387Z,11.69
2023-03-29T11:24:05.335Z,11.32
2023-03-29T11:29:35.573Z,11.38
2023-03-29T11:35:10.098Z,11.46
2023-03-29T11:40:23.360Z,11.85
2023-03-29T11:45:45.562Z,11.75
2023-03-29T11:50:57.808Z,11.54
2023-03-29T12:02:27.509Z,11.66
2023-03-29T12:07:43.260Z,11.70
2023-03-29T12:13:10.719Z,11.99
2023-03-29T12:18:24.146Z,12.21
2023-03-29T12:23:29.541Z,12.21
2023-03-29T12:29:11.086Z,12.53
2023-03-29T12:34:49.794Z,12.60
2023-03-29T12:40:10.155Z,12.50
2023-03-29T12:45:22.090Z,12.50
2023-03-29T12:50:29.929Z,12.49
2023-03-29T12:55:52.279Z,12.31
2023-03-29T13:01:08.912Z,12.33
2023-03-29T13:06:12.569Z,12.32
2023-03-29T13:11:37.713Z,12.21
2023-03-29T13:16:40.590Z,12.08
2023-03-29T13:21:51.059Z,11.92
2023-03-29T13:27:25.459Z,11.89
2023-03-29T13:32:38.292Z,11.93
2023-03-29T13:38:05.216Z,11.86
2023-03-29T13:43:33.688Z,11.73
2023-03-29T13:48:37.610Z,11.64
2023-03-29T13:53:57.891Z,11.38
2023-03-29T13:59:15.540Z,11.33
2023-03-29T14:04:45.016Z,11.77
2023-03-29T14:10:36.110Z,11.86
2023-03-29T14:16:02.981Z,11.76
2023-03-29T14:21:05.727Z,11.80
2023-03-29T14:26:22.228Z,11.59
2023-03-29T14:31:44.459Z,11.77
2023-03-29T14:36:49.989Z,11.41
2023-03-29T14:42:16.365Z,11.16
2023-03-29T14:47:52.908Z,11.16
2023-03-29T14:53:01.862Z,11.06
2023-03-29T14:58:04.383Z,10.93
2023-03-29T15:03:14.024Z,10.95
2023-03-29T15:08:33.961Z,10.90
2023-03-29T15:13:41.633Z,10.81
2023-03-29T15:18:45.850Z,10.70
2023-03-29T15:23:55.761Z,10.60
2023-03-29T15:29:17.011Z,10.66
2023-03-29T15:34:32.126Z,10.61
2023-03-29T15:39:36.971Z,10.50
2023-03-29T15:44:42.207Z,10.55
2023-03-29T15:49:49.642Z,10.62
2023-03-29T15:54:51.502Z,10.71
2023-03-29T15:59:53.120Z,10.53
2023-03-29T16:04:58.958Z,10.43
2023-03-29T16:10:04.124Z,10.38
2023-03-29T16:15:26.440Z,10.44
2023-03-29T16:20:28.043Z,10.40
2023-03-29T16:25:31.281Z,10.23
2023-03-29T16:30:33.403Z,10.22
2023-03-29T16:35:38.514Z,10.29
2023-03-29T16:40:40.118Z,10.14
2023-03-29T16:45:41.997Z,10.06
2023-03-29T16:50:52.468Z,10.02
2023-03-29T16:55:54.669Z,10.04
2023-03-29T17:00:57.123Z,10.05
2023-03-29T17:05:59.247Z,10.02
2023-03-29T17:11:01.448Z,10.12
2023-03-29T17:16:03.372Z,9.97
2023-03-29T17:21:05.844Z,10.00
2023-03-29T17:26:07.673Z,9.96
2023-03-29T17:31:10.968Z,9.99
2023-03-29T17:36:12.605Z,10.03
2023-03-29T17:41:14.375Z,9.98
2023-03-29T17:46:16.903Z,10.03
2023-03-29T17:51:21.896Z,9.84
2023-03-29T17:56:23.707Z,9.88
2023-03-29T18:01:25.502Z,9.89
2023-03-29T18:06:27.379Z,9.86
2023-03-29T18:11:29.408Z,9.83
2023-03-29T18:16:31.390Z,9.85
2023-03-29T18:21:33.023Z,9.81
2023-03-29T18:26:34.611Z,9.75
2023-03-29T18:31:36.307Z,9.84
2023-03-29T18:36:37.916Z,9.85
2023-03-29T18:41:39.494Z,10.00
2023-03-29T18:46:41.354Z,9.98
2023-03-29T18:51:42.940Z,9.97
2023-03-29T19:02:33.553Z,10.01
2023-03-29T19:07:35.940Z,10.04
2023-03-29T19:12:37.638Z,9.88
2023-03-29T19:17:44.862Z,10.02
2023-03-29T19:22:46.652Z,9.98
2023-03-29T19:27:48.185Z,9.92
2023-03-29T19:32:50.235Z,9.92
2023-03-29T19:37:51.906Z,9.89
2023-03-29T19:42:53.465Z,9.85
2023-03-29T19:48:02.998Z,9.91
2023-03-29T19:53:05.186Z,9.93
2023-03-29T19:58:07.192Z,9.90
2023-03-29T20:03:13.970Z,9.74
2023-03-29T20:08:15.776Z,9.90
2023-03-29T20:13:24.462Z,9.57
2023-03-29T20:18:33.429Z,10.03
2023-03-29T20:23:35.581Z,10.09
2023-03-29T20:28:39.903Z,10.07
2023-03-29T20:33:42.249Z,9.94
2023-03-29T20:38:44.797Z,9.96
2023-03-29T20:43:46.388Z,9.84
2023-03-29T20:48:54.361Z,9.60
2023-03-29T20:54:07.746Z,9.98
2023-03-29T20:59:12.227Z,10.03
2023-03-29T21:04:13.924Z,10.00
2023-03-29T21:09:17.227Z,10.03
2023-03-29T21:14:22.483Z,10.05
2023-03-29T21:19:24.701Z,10.21
2023-03-29T21:24:26.239Z,10.25
2023-03-29T21:29:28.018Z,10.23
2023-03-29T21:34:29.619Z,10.29
2023-03-29T21:39:31.455Z,9.93
2023-03-29T21:44:34.327Z,10.14
2023-03-29T21:49:36.304Z,10.14
2023-03-29T21:54:37.903Z,10.12
2023-03-29T21:59:39.478Z,10.06
2023-03-29T22:04:41.408Z,9.97
2023-03-29T22:09:43.131Z,10.04
2023-03-29T22:14:44.734Z,10.07
2023-03-29T22:19:47.506Z,10.01
2023-03-29T22:24:53.017Z,10.00
2023-03-29T22:35:38.314Z,9.88
2023-03-29T22:40:40.829Z,10.21
2023-03-29T22:45:42.834Z,10.28
2023-03-29T22:50:46.766Z,10.44
2023-03-29T22:55:48.345Z,10.53
2023-03-29T23:00:50.432Z,10.57
2023-03-29T23:05:57.740Z,10.55
2023-03-29T23:10:59.931Z,10.68
2023-03-29T23:16:02.332Z,10.72
2023-03-29T23:21:05.877Z,10.88
2023-03-29T23:26:11.885Z,10.91
2023-03-29T23:31:18.370Z,10.86
2023-03-29T23:36:22.714Z,10.86
2023-03-29T23:41:28.100Z,10.94
2023-03-29T23:46:30.100Z,10.91
2023-03-29T23:51:31.824Z,10.95
2023-03-29T23:56:33.508Z,10.77
